Time;durP1;ratioP1;P1;durP2;ratioP2;P2;SDS_P1;SDS_P2;PMS_P1;PMS_P2;Temp;Humidity;BMP_temperature;BMP_pressure;BME280_temperature;BME280_humidity;BME280_pressure;Samples;Min_cycle;Max_cycle;Signal;HPM_P1;HPM_P2
2022/04/19 00:00:53;;;;;;;37.60;16.95;;;;;;;;;;4990045;28;20077;-66
2022/04/19 00:03:20;;;;;;;30.08;17.60;;;;;;;;;;4978482;28;20376;-66
2022/04/19 00:05:47;;;;;;;29.90;16.58;;;;;;;;;;4995183;28;20026;-66
2022/04/19 00:08:14;;;;;;;32.88;17.65;;;;;;;;;;4978439;28;20037;-66
2022/04/19 00:10:40;;;;;;;28.30;15.70;;;;;;;;;;4995971;28;20026;-66
2022/04/19 00:13:07;;;;;;;29.48;17.27;;;;;;;;;;4978276;28;20041;-66
2022/04/19 00:15:34;;;;;;;30.80;16.35;;;;;;;;;;4978324;28;20489;-66
2022/04/19 00:18:02;;;;;;;30.10;16.35;;;;;;;;;;4995496;28;20467;-67
2022/04/19 00:20:29;;;;;;;34.72;17.17;;;;;;;;;;4995499;28;20399;-66
2022/04/19 00:22:55;;;;;;;31.15;16.00;;;;;;;;;;4978211;28;20038;-66
2022/04/19 00:25:22;;;;;;;28.85;16.52;;;;;;;;;;4995612;28;20081;-67
2022/04/19 00:27:48;;;;;;;33.38;17.00;;;;;;;;;;4995614;28;20034;-64
2022/04/19 00:30:15;;;;;;;29.20;15.93;;;;;;;;;;4995428;28;20027;-64
2022/04/19 00:32:41;;;;;;;31.27;15.25;;;;;;;;;;4977890;28;20117;-64
2022/04/19 00:35:08;;;;;;;28.38;15.88;;;;;;;;;;4978001;28;20188;-65
2022/04/19 00:37:35;;;;;;;32.80;16.02;;;;;;;;;;4995130;28;20080;-66
2022/04/19 00:40:04;;;;;;;31.45;17.27;;;;;;;;;;4995315;28;20022;-66
2022/04/19 00:42:31;;;;;;;28.77;17.70;;;;;;;;;;4995317;28;20037;-66
2022/04/19 00:45:04;;;;;;;39.00;20.08;;;;;;;;;;4995254;28;20038;-65
2022/04/19 00:47:34;;;;;;;34.45;17.95;;;;;;;;;;4995475;28;20042;-65
2022/04/19 00:50:03;;;;;;;38.28;18.52;;;;;;;;;;4977702;28;20054;-65
2022/04/19 00:52:30;;;;;;;33.03;17.35;;;;;;;;;;4994854;28;20057;-65
2022/04/19 00:54:57;;;;;;;34.00;19.65;;;;;;;;;;4995068;28;20038;-65
2022/04/19 00:57:24;;;;;;;46.42;22.25;;;;;;;;;;4995069;28;20536;-65
2022/04/19 00:59:53;;;;;;;43.10;21.67;;;;;;;;;;4994760;28;20773;-65
2022/04/19 01:02:20;;;;;;;36.40;18.70;;;;;;;;;;4977445;28;20030;-64
2022/04/19 01:04:46;;;;;;;32.80;18.80;;;;;;;;;;4994896;28;20034;-64
2022/04/19 01:07:12;;;;;;;36.85;19.25;;;;;;;;;;4994852;28;20027;-65
2022/04/19 01:09:39;;;;;;;32.13;18.65;;;;;;;;;;4994841;28;20026;-65
2022/04/19 01:14:55;;;;;;;25.48;14.63;;;;;;;;;;4994460;28;20065;-64
2022/04/19 01:17:22;;;;;;;25.83;15.30;;;;;;;;;;4994647;28;20030;-64
2022/04/19 01:19:48;;;;;;;29.50;16.00;;;;;;;;;;4977241;28;20034;-64
2022/04/19 01:22:14;;;;;;;37.45;19.20;;;;;;;;;;4977106;28;20030;-65
2022/04/19 01:24:43;;;;;;;46.03;20.65;;;;;;;;;;4994557;28;20038;-65
2022/04/19 01:27:09;;;;;;;41.83;21.00;;;;;;;;;;4977016;28;20080;-65
2022/04/19 01:29:36;;;;;;;36.47;19.65;;;;;;;;;;4977057;28;20422;-65
2022/04/19 01:32:04;;;;;;;33.63;18.75;;;;;;;;;;4993997;28;20046;-64
2022/04/19 01:34:30;;;;;;;54.53;23.23;;;;;;;;;;4976785;28;20030;-65
2022/04/19 01:36:56;;;;;;;56.15;24.45;;;;;;;;;;4994337;28;20036;-64
2022/04/19 01:42:10;;;;;;;43.30;19.40;;;;;;;;;;4994031;28;20045;-65
2022/04/19 01:44:39;;;;;;;39.22;19.60;;;;;;;;;;4993978;28;20041;-65
2022/04/19 01:47:07;;;;;;;36.28;19.40;;;;;;;;;;4994177;28;20022;-65
2022/04/19 01:49:35;;;;;;;32.37;17.27;;;;;;;;;;4994161;28;20054;-65
2022/04/19 01:52:02;;;;;;;29.33;17.40;;;;;;;;;;4994108;28;20366;-65
2022/04/19 01:54:29;;;;;;;35.60;18.87;;;;;;;;;;4993968;28;20030;-65
2022/04/19 01:56:55;;;;;;;50.50;23.63;;;;;;;;;;4994263;28;20044;-64
2022/04/19 01:59:22;;;;;;;63.57;26.27;;;;;;;;;;4976439;28;20040;-64
2022/04/19 02:01:48;;;;;;;61.30;23.27;;;;;;;;;;4994259;28;20026;-64
2022/04/19 02:04:15;;;;;;;49.70;21.67;;;;;;;;;;4976457;28;20470;-65
2022/04/19 02:06:44;;;;;;;52.28;23.20;;;;;;;;;;4993856;28;20088;-65
2022/04/19 02:09:11;;;;;;;47.43;22.30;;;;;;;;;;4993832;28;20027;-66
2022/04/19 02:11:38;;;;;;;46.07;22.10;;;;;;;;;;4994153;28;20026;-66
2022/04/19 02:14:04;;;;;;;40.97;20.40;;;;;;;;;;4993749;28;20033;-66
2022/04/19 02:16:31;;;;;;;33.20;17.40;;;;;;;;;;4993757;28;20027;-65
2022/04/19 02:18:58;;;;;;;31.63;18.43;;;;;;;;;;4993791;28;20027;-66
2022/04/19 02:21:24;;;;;;;41.22;19.95;;;;;;;;;;4993484;28;20375;-65
2022/04/19 02:23:50;;;;;;;37.63;17.73;;;;;;;;;;4993930;28;20036;-65
2022/04/19 02:26:23;;;;;;;33.20;18.20;;;;;;;;;;4993622;28;20018;-65
2022/04/19 02:28:51;;;;;;;43.35;18.48;;;;;;;;;;4998852;28;20031;-65
2022/04/19 02:31:17;;;;;;;33.93;17.10;;;;;;;;;;4982569;28;20399;-66
2022/04/19 02:33:43;;;;;;;41.25;19.95;;;;;;;;;;4982534;28;20038;-66
2022/04/19 02:36:09;;;;;;;41.37;19.70;;;;;;;;;;4982554;28;20034;-65
2022/04/19 02:38:36;;;;;;;43.60;19.67;;;;;;;;;;5000055;28;20034;-65
2022/04/19 02:41:02;;;;;;;43.13;20.08;;;;;;;;;;5000096;28;20029;-66
2022/04/19 02:43:29;;;;;;;36.88;17.92;;;;;;;;;;5000017;28;20117;-65
2022/04/19 02:45:56;;;;;;;28.05;15.77;;;;;;;;;;5000067;28;20022;-65
2022/04/19 02:48:22;;;;;;;33.97;17.42;;;;;;;;;;4982461;28;20030;-67
2022/04/19 02:50:49;;;;;;;32.27;17.53;;;;;;;;;;5000049;28;20041;-65
2022/04/19 02:53:15;;;;;;;30.80;17.02;;;;;;;;;;5000205;28;20037;-65
2022/04/19 02:55:42;;;;;;;41.35;17.15;;;;;;;;;;4999987;28;20038;-65
2022/04/19 02:58:08;;;;;;;36.97;16.13;;;;;;;;;;4999917;28;20022;-65
2022/04/19 03:00:35;;;;;;;30.23;16.67;;;;;;;;;;4999680;28;20061;-67
2022/04/19 03:03:01;;;;;;;30.93;15.43;;;;;;;;;;4999898;28;20030;-67
2022/04/19 03:05:27;;;;;;;23.98;13.98;;;;;;;;;;4982282;28;20030;-67
2022/04/19 03:07:53;;;;;;;31.00;15.93;;;;;;;;;;5000100;28;20463;-67
2022/04/19 03:10:21;;;;;;;29.10;15.88;;;;;;;;;;4999854;28;20088;-67
2022/04/19 03:12:48;;;;;;;37.00;16.67;;;;;;;;;;4999452;28;20493;-67
2022/04/19 03:15:15;;;;;;;27.53;15.50;;;;;;;;;;4982211;28;20038;-67
2022/04/19 03:17:41;;;;;;;32.47;17.88;;;;;;;;;;4999727;28;20498;-66
2022/04/19 03:20:11;;;;;;;26.07;15.40;;;;;;;;;;4999956;28;20105;-66
2022/04/19 03:28:09;;;;;;;25.70;15.07;;;;;;;;;;4999718;28;20045;-66
2022/04/19 03:30:36;;;;;;;25.70;14.13;;;;;;;;;;4999453;28;20046;-65
2022/04/19 03:33:02;;;;;;;23.97;14.67;;;;;;;;;;4982045;28;20530;-65
2022/04/19 03:35:28;;;;;;;26.83;13.90;;;;;;;;;;4999629;28;20034;-65
2022/04/19 03:37:55;;;;;;;21.07;13.17;;;;;;;;;;4999857;28;20022;-66
2022/04/19 03:40:21;;;;;;;27.73;13.47;;;;;;;;;;4995987;28;20028;-66
2022/04/19 03:42:47;;;;;;;26.33;13.70;;;;;;;;;;4996444;28;20029;-65
2022/04/19 03:45:13;;;;;;;28.70;13.00;;;;;;;;;;4996164;28;20029;-66
2022/04/19 03:47:39;;;;;;;24.57;13.80;;;;;;;;;;4978823;28;20026;-66
2022/04/19 03:50:06;;;;;;;22.43;14.30;;;;;;;;;;4996350;28;20500;-66
2022/04/19 03:52:34;;;;;;;24.07;14.13;;;;;;;;;;4996336;28;20387;-66
2022/04/19 03:55:00;;;;;;;29.63;15.50;;;;;;;;;;4978644;28;20077;-65
2022/04/19 03:57:27;;;;;;;31.10;14.93;;;;;;;;;;4996191;28;20086;-65
2022/04/19 03:59:53;;;;;;;28.53;15.57;;;;;;;;;;4978696;28;20387;-65
2022/04/19 04:02:20;;;;;;;27.23;14.63;;;;;;;;;;4996154;28;20037;-66
2022/04/19 04:04:46;;;;;;;47.00;15.53;;;;;;;;;;4996014;28;20030;-66
2022/04/19 04:07:13;;;;;;;29.02;12.95;;;;;;;;;;4978489;28;20493;-65
2022/04/19 04:09:39;;;;;;;20.35;11.52;;;;;;;;;;4995965;28;20112;-65
2022/04/19 04:12:12;;;;;;;25.03;13.60;;;;;;;;;;4978585;28;20034;-65
2022/04/19 04:14:39;;;;;;;33.88;14.20;;;;;;;;;;4995579;28;20042;-65
2022/04/19 04:17:06;;;;;;;27.83;14.38;;;;;;;;;;4978329;28;20034;-65
2022/04/19 04:19:32;;;;;;;32.47;16.30;;;;;;;;;;4995821;28;20027;-64
2022/04/19 04:21:58;;;;;;;35.15;17.05;;;;;;;;;;4995729;28;20028;-65
2022/04/19 04:24:25;;;;;;;36.55;19.38;;;;;;;;;;4995692;28;20038;-65
2022/04/19 04:26:57;;;;;;;39.17;19.63;;;;;;;;;;4978182;28;20031;-65
2022/04/19 04:29:23;;;;;;;45.20;19.48;;;;;;;;;;4978209;28;20034;-65
2022/04/19 04:31:49;;;;;;;58.25;22.10;;;;;;;;;;4995087;28;20137;-65
2022/04/19 04:34:15;;;;;;;60.80;24.40;;;;;;;;;;4995106;28;20401;-65
2022/04/19 04:36:42;;;;;;;68.32;24.23;;;;;;;;;;4995532;28;20039;-65
2022/04/19 04:39:08;;;;;;;41.88;20.73;;;;;;;;;;4995438;28;20027;-63
2022/04/19 04:41:34;;;;;;;45.87;21.03;;;;;;;;;;4995432;28;20022;-64
2022/04/19 04:44:00;;;;;;;49.57;21.67;;;;;;;;;;4995354;28;20379;-64
2022/04/19 04:51:56;;;;;;;45.50;18.57;;;;;;;;;;4994677;28;20084;-64
2022/04/19 04:54:22;;;;;;;37.47;19.23;;;;;;;;;;4995014;28;20026;-64
2022/04/19 04:56:48;;;;;;;44.88;24.63;;;;;;;;;;4995043;28;20026;-65
2022/04/19 04:59:14;;;;;;;47.17;24.70;;;;;;;;;;4995027;28;20037;-65
2022/04/19 05:01:40;;;;;;;40.77;22.37;;;;;;;;;;4994982;28;20031;-65
2022/04/19 05:04:07;;;;;;;52.33;24.67;;;;;;;;;;4977468;28;20034;-65
2022/04/19 05:06:33;;;;;;;53.35;27.35;;;;;;;;;;4977458;28;20062;-65
2022/04/19 05:08:59;;;;;;;43.90;22.20;;;;;;;;;;4994810;28;20037;-65
2022/04/19 05:11:25;;;;;;;43.95;22.52;;;;;;;;;;4994602;28;20110;-65
2022/04/19 05:13:52;;;;;;;36.78;19.80;;;;;;;;;;4977176;28;20030;-65
2022/04/19 05:16:18;;;;;;;34.78;17.02;;;;;;;;;;4994748;28;20128;-66
2022/04/19 05:18:44;;;;;;;27.48;14.52;;;;;;;;;;4994597;28;20026;-66
2022/04/19 05:21:10;;;;;;;31.63;15.18;;;;;;;;;;4977110;28;20443;-66
2022/04/19 05:23:36;;;;;;;25.08;14.73;;;;;;;;;;4994539;28;20109;-66
2022/04/19 05:26:03;;;;;;;37.33;16.40;;;;;;;;;;4976957;28;20031;-64
2022/04/19 05:28:29;;;;;;;38.10;16.67;;;;;;;;;;4976889;28;20121;-65
2022/04/19 05:30:55;;;;;;;34.67;14.48;;;;;;;;;;4994110;28;20050;-64
2022/04/19 05:33:22;;;;;;;24.63;14.48;;;;;;;;;;4994457;28;20034;-64
2022/04/19 05:35:48;;;;;;;36.00;16.27;;;;;;;;;;4993314;28;20360;-64
2022/04/19 05:38:14;;;;;;;30.33;15.65;;;;;;;;;;4975432;28;20117;-64
2022/04/19 05:40:40;;;;;;;24.85;14.05;;;;;;;;;;4976513;28;20113;-64
2022/04/19 05:43:06;;;;;;;26.42;14.50;;;;;;;;;;4975462;28;20129;-64
2022/04/19 05:45:33;;;;;;;25.85;15.45;;;;;;;;;;4994396;28;20027;-64
2022/04/19 05:48:00;;;;;;;35.78;15.05;;;;;;;;;;4994099;28;20054;-64
2022/04/19 05:50:27;;;;;;;24.05;14.02;;;;;;;;;;4994065;28;20062;-64
2022/04/19 05:52:53;;;;;;;23.27;14.82;;;;;;;;;;4994007;28;20038;-62
2022/04/19 05:55:19;;;;;;;31.48;15.40;;;;;;;;;;4993979;28;20038;-64
2022/04/19 05:57:45;;;;;;;27.75;14.95;;;;;;;;;;4993713;28;20110;-64
2022/04/19 06:00:12;;;;;;;28.70;16.15;;;;;;;;;;4994160;28;20034;-64
2022/04/19 06:05:22;;;;;;;30.17;17.13;;;;;;;;;;4993662;28;20092;-65
2022/04/19 06:07:52;;;;;;;30.33;15.23;;;;;;;;;;4976316;28;20113;-65
2022/04/19 06:10:18;;;;;;;31.15;15.80;;;;;;;;;;4976309;28;20468;-65
2022/04/19 06:12:45;;;;;;;23.95;14.95;;;;;;;;;;4993888;28;20026;-64
2022/04/19 06:15:11;;;;;;;24.63;14.48;;;;;;;;;;4993689;28;20042;-65
2022/04/19 06:17:38;;;;;;;23.88;13.90;;;;;;;;;;4993397;28;20368;-65
2022/04/19 06:20:05;;;;;;;31.20;14.70;;;;;;;;;;4993687;28;20521;-65
2022/04/19 06:22:35;;;;;;;23.10;13.35;;;;;;;;;;4993651;28;20097;-64
2022/04/19 06:25:03;;;;;;;24.00;13.43;;;;;;;;;;4993702;28;20023;-65
2022/04/19 06:27:30;;;;;;;19.48;12.43;;;;;;;;;;4975858;28;20045;-66
2022/04/19 06:29:57;;;;;;;18.42;11.73;;;;;;;;;;4993632;28;20606;-65
2022/04/19 06:32:24;;;;;;;21.55;12.52;;;;;;;;;;4993636;28;20046;-63
2022/04/19 06:34:52;;;;;;;21.48;12.70;;;;;;;;;;4993837;28;20030;-64
2022/04/19 06:37:20;;;;;;;20.58;11.07;;;;;;;;;;4993492;28;20034;-67
2022/04/19 06:39:46;;;;;;;22.67;13.18;;;;;;;;;;4976012;28;20038;-63
2022/04/19 06:42:12;;;;;;;28.05;13.52;;;;;;;;;;4976056;28;20390;-64
2022/04/19 06:44:39;;;;;;;23.33;12.10;;;;;;;;;;4976029;28;20075;-64
2022/04/19 06:47:05;;;;;;;31.85;12.90;;;;;;;;;;4993479;28;20018;-63
2022/04/19 06:49:32;;;;;;;26.45;12.43;;;;;;;;;;4993727;28;20038;-63
2022/04/19 06:51:58;;;;;;;18.73;11.30;;;;;;;;;;4993478;28;20038;-63
2022/04/19 06:54:24;;;;;;;23.60;10.35;;;;;;;;;;4993100;28;20165;-63
2022/04/19 06:56:50;;;;;;;19.02;10.57;;;;;;;;;;4993301;28;20073;-65
2022/04/19 06:59:17;;;;;;;21.38;10.52;;;;;;;;;;4975649;28;20071;-65
2022/04/19 07:01:43;;;;;;;23.38;11.10;;;;;;;;;;4993326;28;20030;-65
2022/04/19 07:04:10;;;;;;;21.95;10.07;;;;;;;;;;4975624;28;20042;-65
2022/04/19 07:06:36;;;;;;;18.80;10.00;;;;;;;;;;4975741;28;20113;-65
2022/04/19 07:09:03;;;;;;;17.08;10.40;;;;;;;;;;4993370;28;20026;-62
2022/04/19 07:11:30;;;;;;;29.48;10.93;;;;;;;;;;4975692;28;20038;-64
2022/04/19 07:13:56;;;;;;;18.45;9.75;;;;;;;;;;4994267;28;20030;-62
2022/04/19 07:16:22;;;;;;;14.27;8.35;;;;;;;;;;4996843;28;20034;-63
2022/04/19 07:18:48;;;;;;;13.98;8.05;;;;;;;;;;4996889;28;20034;-62
2022/04/19 07:26:47;;;;;;;21.90;8.93;;;;;;;;;;4996519;28;20578;-62
2022/04/19 07:29:17;;;;;;;35.22;9.45;;;;;;;;;;4996690;28;20457;-62
2022/04/19 07:31:45;;;;;;;10.27;7.18;;;;;;;;;;4996151;28;20042;-62
2022/04/19 07:34:12;;;;;;;6.82;4.50;;;;;;;;;;4996239;28;20113;-68
2022/04/19 07:36:40;;;;;;;5.80;4.70;;;;;;;;;;4994110;28;20034;-67
2022/04/19 07:39:06;;;;;;;5.93;4.65;;;;;;;;;;4981360;28;20159;-69
2022/04/19 07:41:34;;;;;;;15.80;6.70;;;;;;;;;;4976119;28;20514;-65
2022/04/19 07:44:04;;;;;;;9.40;5.28;;;;;;;;;;4975660;28;20026;-64
2022/04/19 07:46:31;;;;;;;11.10;6.25;;;;;;;;;;4958558;28;20058;-65
2022/04/19 07:48:57;;;;;;;10.63;5.93;;;;;;;;;;4975064;28;20138;-64
2022/04/19 07:51:24;;;;;;;10.65;5.75;;;;;;;;;;4958710;28;20023;-65
2022/04/19 07:53:50;;;;;;;7.95;4.68;;;;;;;;;;4959182;28;20038;-65
2022/04/19 07:56:17;;;;;;;6.95;4.47;;;;;;;;;;4976608;28;20049;-63
2022/04/19 07:58:45;;;;;;;7.13;3.78;;;;;;;;;;4976194;28;20062;-64
2022/04/19 08:01:11;;;;;;;5.90;3.75;;;;;;;;;;4976280;28;20026;-62
2022/04/19 08:03:38;;;;;;;5.10;3.10;;;;;;;;;;4976362;28;20498;-64
2022/04/19 08:06:04;;;;;;;5.68;3.45;;;;;;;;;;4976094;28;20511;-62
2022/04/19 08:08:30;;;;;;;5.78;3.58;;;;;;;;;;4958962;28;20034;-62
2022/04/19 08:10:57;;;;;;;5.68;3.08;;;;;;;;;;4959177;28;20384;-62
2022/04/19 08:13:24;;;;;;;4.53;3.00;;;;;;;;;;4976320;28;20035;-62
2022/04/19 08:15:50;;;;;;;17.98;7.07;;;;;;;;;;4976247;28;20031;-62
2022/04/19 08:18:18;;;;;;;16.30;5.32;;;;;;;;;;4976085;28;20105;-62
2022/04/19 08:20:45;;;;;;;9.27;3.45;;;;;;;;;;4976145;28;20082;-62
2022/04/19 08:23:11;;;;;;;5.72;4.45;;;;;;;;;;4958994;28;20383;-62
2022/04/19 08:25:38;;;;;;;5.47;3.25;;;;;;;;;;4975287;28;20035;-64
2022/04/19 08:28:04;;;;;;;5.18;3.70;;;;;;;;;;4958587;28;20455;-65
2022/04/19 08:30:31;;;;;;;6.82;2.70;;;;;;;;;;4975801;28;20046;-63
2022/04/19 08:32:57;;;;;;;3.28;2.63;;;;;;;;;;4975948;28;20105;-62
2022/04/19 08:35:23;;;;;;;9.18;2.72;;;;;;;;;;4975719;28;20045;-63
2022/04/19 08:37:50;;;;;;;5.50;3.35;;;;;;;;;;4958599;28;20092;-63
2022/04/19 08:40:17;;;;;;;6.38;3.58;;;13.10;68.80;;;;;;4958272;28;20034;-63
2022/04/19 08:42:44;;;;;;;13.10;4.45;;;13.10;71.10;;;;;;4975832;28;20023;-63
2022/04/19 08:45:13;;;;;;;6.97;4.07;;;12.90;71.10;;;;;;4975751;28;20038;-63
2022/04/19 08:47:41;;;;;;;8.65;4.50;;;13.00;70.10;;;;;;4958667;28;20045;-62
2022/04/19 08:50:10;;;;;;;8.38;5.95;;;13.30;70.50;;;;;;4975404;28;20028;-63
2022/04/19 08:52:36;;;;;;;5.68;3.97;;;13.70;74.30;;;;;;4975645;28;20054;-63
2022/04/19 08:57:48;;;;;;;7.05;2.50;;;13.90;68.10;;;;;;4975314;28;20077;-63
2022/04/19 09:00:15;;;;;;;35.85;5.13;;;13.90;62.80;;;;;;4975301;28;20062;-63
2022/04/19 09:02:41;;;;;;;7.47;4.10;;;13.80;62.40;;;;;;4975391;28;20023;-63
2022/04/19 09:05:14;;;;;;;2.65;2.35;;;14.00;64.30;;;;;;4958147;28;20035;-63
2022/04/19 09:07:40;;;;;;;4.32;2.80;;;14.20;63.40;;;;;;4975303;28;20038;-63
2022/04/19 09:10:11;;;;;;;4.07;2.88;;;14.30;63.90;;;;;;4958110;28;20105;-62
2022/04/19 09:12:37;;;;;;;4.20;3.08;;;;;;;;;;4975263;28;20042;-63
2022/04/19 09:15:08;;;;;;;4.70;3.50;;;14.50;63.10;;;;;;4957896;28;20065;-62
2022/04/19 09:17:36;;;;;;;10.55;3.22;;;14.90;64.70;;;;;;4975250;28;20085;-63
2022/04/19 09:20:28;;;;;;;4.28;2.95;;;15.00;64.40;;;;;;4957795;28;20026;-63
2022/04/19 09:23:07;;;;;;;7.63;3.28;;;15.30;62.20;;;;;;4971238;28;20039;-64
2022/04/19 09:25:34;;;;;;;8.15;3.47;;;15.30;63.20;;;;;;4974964;28;20469;-62
2022/04/19 09:28:01;;;;;;;9.20;2.80;;;15.20;62.60;;;;;;4974897;28;20080;-63
2022/04/19 09:30:30;;;;;;;4.97;3.10;;;15.10;58.80;;;;;;4974703;28;20343;-62
2022/04/19 09:33:17;;;;;;;4.38;2.70;;;15.00;61.00;;;;;;4974876;28;20038;-62
2022/04/19 09:35:47;;;;;;;4.25;2.80;;;14.60;61.40;;;;;;4974883;28;20034;-62
2022/04/19 09:38:13;;;;;;;3.60;2.47;;;14.30;59.30;;;;;;4956569;28;20033;-62
2022/04/19 09:40:44;;;;;;;5.40;3.00;;;15.00;59.40;;;;;;4974866;28;20035;-63
2022/04/19 09:43:13;;;;;;;5.18;2.85;;;15.00;60.20;;;;;;4975086;28;20371;-62
2022/04/19 09:46:05;;;;;;;4.05;2.60;;;15.60;60.50;;;;;;4973041;28;20035;-64
2022/04/19 09:48:48;;;;;;;7.25;1.77;;;16.10;60.20;;;;;;4987120;28;20100;-62
2022/04/19 09:51:14;;;;;;;4.65;2.15;;;16.00;57.30;;;;;;4976562;28;20508;-63
2022/04/19 09:53:47;;;;;;;6.00;3.25;;;16.50;56.50;;;;;;4994174;28;20026;-63
2022/04/19 09:56:15;;;;;;;6.82;2.70;;;16.30;59.00;;;;;;4994079;28;20034;-63
2022/04/19 09:58:51;;;;;;;5.63;2.30;;;16.90;56.90;;;;;;4993808;28;20057;-63
2022/04/19 10:09:36;;;;;;;2.55;1.95;;;16.00;57.60;;;;;;4993669;28;20589;-61
2022/04/19 10:12:12;;;;;;;4.50;2.13;;;16.30;59.10;;;;;;4993639;28;20022;-62
2022/04/19 10:14:39;;;;;;;3.85;2.20;;;16.70;59.70;;;;;;4993521;28;20054;-62
2022/04/19 10:17:05;;;;;;;3.45;1.67;;;16.70;55.10;;;;;;4993695;28;20037;-63
2022/04/19 10:19:32;;;;;;;5.47;1.83;;;16.80;52.70;;;;;;4993432;28;20100;-64
2022/04/19 10:22:05;;;;;;;2.55;2.00;;;17.30;53.40;;;;;;4993602;28;20093;-63
2022/04/19 10:24:47;;;;;;;2.25;1.60;;;17.10;54.20;;;;;;4993681;28;20026;-63
2022/04/19 10:27:13;;;;;;;2.55;1.60;;;18.10;54.00;;;;;;4976184;28;20360;-62
2022/04/19 10:29:41;;;;;;;5.53;2.28;;;18.60;53.50;;;;;;4993239;28;20034;-64
2022/04/19 10:32:08;;;;;;;3.70;2.20;;;19.30;51.90;;;;;;4977309;28;20053;-65
2022/04/19 10:34:36;;;;;;;2.78;1.85;;;18.70;50.90;;;;;;4956554;28;20035;-65
2022/04/19 10:37:23;;;;;;;3.83;2.35;;;19.50;51.40;;;;;;4974127;28;20064;-64
2022/04/19 10:39:58;;;;;;;7.30;3.92;;;20.00;48.40;;;;;;4974125;28;20479;-65
2022/04/19 10:42:28;;;;;;;3.78;1.98;;;20.20;48.70;;;;;;4956752;28;20038;-65
2022/04/19 10:44:55;;;;;;;3.05;1.70;;;19.50;47.20;;;;;;4974104;28;20381;-65
2022/04/19 10:47:26;;;;;;;5.70;2.10;;;20.70;46.30;;;;;;4956604;28;20407;-64
2022/04/19 10:50:04;;;;;;;2.67;1.50;;;20.50;49.30;;;;;;4958881;28;20035;-65
2022/04/19 10:52:36;;;;;;;5.90;2.05;;;20.50;43.60;;;;;;4960519;28;20476;-62
2022/04/19 10:55:10;;;;;;;7.80;2.53;;;22.60;45.00;;;;;;4960440;28;20077;-63
2022/04/19 11:00:34;;;;;;;3.75;2.00;;;24.00;40.40;;;;;;4977592;28;20140;-65
2022/04/19 11:03:02;;;;;;;2.95;1.90;;;24.70;40.00;;;;;;4977059;28;20034;-63
2022/04/19 11:05:43;;;;;;;3.83;1.90;;;23.50;40.50;;;;;;4960375;28;20034;-64
2022/04/19 11:08:27;;;;;;;1.90;1.80;;;23.20;40.00;;;;;;4977651;28;20031;-63
2022/04/19 11:11:21;;;;;;;2.25;1.85;;;23.20;41.10;;;;;;4959582;28;20542;-63
2022/04/19 11:14:18;;;;;;;3.75;1.90;;;23.10;41.20;;;;;;4976370;28;20090;-63
2022/04/19 11:16:44;;;;;;;2.80;1.80;;;21.70;40.20;;;;;;4977563;28;20029;-63
2022/04/19 11:19:16;;;;;;;3.47;2.08;;;22.80;40.80;;;;;;4960039;28;20034;-63
2022/04/19 11:21:48;;;;;;;;;;;20.40;43.10;;;;;;4960332;28;20031;-62
2022/04/19 11:24:53;;;;;;;3.55;2.20;;;20.20;43.50;;;;;;4977299;28;19974;-62
2022/04/19 11:27:19;;;;;;;3.42;2.50;;;22.80;44.90;;;;;;4976453;28;20142;-62
2022/04/19 11:29:51;;;;;;;4.10;2.42;;;25.10;42.60;;;;;;4980219;28;20437;-66
2022/04/19 11:32:23;;;;;;;10.27;4.43;;;24.90;39.80;;;;;;4988910;28;20487;-64
2022/04/19 11:35:02;;;;;;;4.32;2.95;;;23.90;39.90;;;;;;4959699;28;20391;-64
2022/04/19 11:37:32;;;;;;;7.88;2.53;;;;;;;;;;4977119;28;20045;-64
2022/04/19 11:48:28;;;;;;;;;;;25.50;37.90;;;;;;4976940;28;20174;-65
2022/04/19 11:51:06;;;;;;;2.60;2.25;;;25.30;38.50;;;;;;4959428;28;19906;-65
2022/04/19 11:53:31;;;;;;;3.28;2.30;;;24.90;38.70;;;;;;4976657;28;20030;-65
2022/04/19 11:55:59;;;;;;;6.18;2.38;;;24.60;39.00;;;;;;4976777;28;20035;-65
2022/04/19 11:58:26;;;;;;;4.18;2.38;;;;;;;;;;4976473;28;20031;-64
2022/04/19 12:00:58;;;;;;;6.35;2.60;;;26.40;39.20;;;;;;4975353;28;20551;-66
2022/04/19 12:03:29;;;;;;;4.68;1.77;;;26.10;37.10;;;;;;4977010;28;20057;-65
2022/04/19 12:06:09;;;;;;;2.15;1.88;;;26.60;38.30;;;;;;4976653;28;20030;-65
2022/04/19 12:08:46;;;;;;;1.83;1.65;;;26.50;36.70;;;;;;4959231;28;20109;-65
2022/04/19 12:11:16;;;;;;;2.55;2.20;;;;;;;;;;4976489;28;20027;-65
2022/04/19 12:13:50;;;;;;;4.30;2.13;;;25.50;35.80;;;;;;4976571;28;20026;-65
2022/04/19 12:16:29;;;;;;;3.63;2.08;;;23.80;37.50;;;;;;4976514;28;20042;-65
2022/04/19 12:18:58;;;;;;;5.13;1.98;;;22.60;38.50;;;;;;4976311;28;20460;-64
2022/04/19 12:21:56;;;;;;;9.25;2.10;;;25.80;37.20;;;;;;4958961;28;20356;-64
2022/04/19 12:24:26;;;;;;;5.20;2.55;;;27.00;38.00;;;;;;4916050;29;20040;-65
2022/04/19 12:27:12;;;;;;;4.82;2.17;;;26.00;37.10;;;;;;4916549;29;20556;-65
2022/04/19 12:30:12;;;;;;;1.67;1.58;;;25.80;36.90;;;;;;4916365;29;20128;-65
2022/04/19 12:32:59;;;;;;;3.13;1.77;;;25.80;38.40;;;;;;4915952;29;20056;-65
2022/04/19 12:35:34;;;;;;;4.93;2.00;;;27.80;36.20;;;;;;4916225;29;20135;-65
2022/04/19 12:38:10;;;;;;;2.65;1.67;;;27.40;35.60;;;;;;4916305;29;20048;-65
2022/04/19 12:40:38;;;;;;;5.47;2.72;;;27.10;36.80;;;;;;4916203;29;20044;-65
2022/04/19 12:43:04;;;;;;;3.78;1.88;;;28.00;36.60;;;;;;4916054;29;20584;-66
2022/04/19 12:45:37;;;;;;;3.83;2.00;;;27.30;34.60;;;;;;4915571;29;20037;-65
2022/04/19 12:48:04;;;;;;;2.22;1.70;;;26.20;35.70;;;;;;4914889;29;20063;-65
2022/04/19 12:50:30;;;;;;;4.30;1.70;;;26.80;36.80;;;;;;4900129;29;20036;-65
2022/04/19 12:52:56;;;;;;;6.95;1.83;;;26.30;36.40;;;;;;4915747;29;20055;-65
2022/04/19 12:55:31;;;;;;;4.18;1.80;;;24.90;37.10;;;;;;4915866;29;20485;-65
2022/04/19 12:58:07;;;;;;;3.53;2.28;;;24.10;38.70;;;;;;4915834;29;20474;-65
2022/04/19 13:00:35;;;;;;;1.83;1.60;;;22.90;39.30;;;;;;4960545;28;20502;-64
2022/04/19 13:03:00;;;;;;;2.60;1.98;;;23.00;40.10;;;;;;4958111;28;20123;-66
2022/04/19 13:12:16;;;;;;;2.45;2.20;;;22.60;40.30;;;;;;4975165;28;20035;-65
2022/04/19 13:13:41;;;;;;;6.70;2.20;;;26.30;37.20;;;;;;4975125;28;20106;-66
2022/04/19 13:16:07;;;;;;;5.38;2.28;;;25.60;37.60;;;;;;4975449;28;20464;-65
2022/04/19 13:18:33;;;;;;;43.60;2.58;;;24.80;36.40;;;;;;4975160;28;20102;-65
2022/04/19 13:20:59;;;;;;;4.13;2.50;;;24.70;37.50;;;;;;4975133;28;20081;-65
2022/04/19 13:23:25;;;;;;;2.78;2.05;;;23.70;37.70;;;;;;4957781;28;20031;-65
2022/04/19 13:25:53;;;;;;;4.40;2.03;;;23.40;38.80;;;;;;4975236;28;20038;-65
2022/04/19 13:28:19;;;;;;;6.07;2.00;;;23.40;39.50;;;;;;4957623;28;20031;-64
2022/04/19 13:30:44;;;;;;;2.60;1.83;;;21.90;39.10;;;;;;4957605;28;20488;-64
2022/04/19 13:33:10;;;;;;;3.88;1.88;;;21.70;40.90;;;;;;4977635;28;20018;-68
2022/04/19 13:35:36;;;;;;;3.67;2.33;;;22.00;40.20;;;;;;4985875;28;20069;-68
2022/04/19 13:40:46;;;;;;;3.80;2.33;;;23.70;38.80;;;;;;4994008;28;20030;-67
2022/04/19 13:43:12;;;;;;;1.80;1.70;;;22.30;38.60;;;;;;4994249;28;20022;-67
2022/04/19 13:45:38;;;;;;;3.30;1.90;;;21.90;39.40;;;;;;4994217;28;20026;-67
2022/04/19 13:48:04;;;;;;;3.05;2.35;;;22.40;39.90;;;;;;4994323;28;20475;-66
2022/04/19 13:50:30;;;;;;;15.68;7.40;;;22.20;40.00;;;;;;4994032;28;20034;-66
2022/04/19 13:52:56;;;;;;;4.05;2.28;;;21.80;41.20;;;;;;4993978;28;20527;-65
2022/04/19 13:55:22;;;;;;;3.75;1.92;;;20.60;42.10;;;;;;4994081;28;20040;-66
2022/04/19 13:57:49;;;;;;;2.78;1.83;;;20.10;41.70;;;;;;4993883;28;20036;-64
2022/04/19 14:00:16;;;;;;;5.95;2.25;;;19.80;42.40;;;;;;4993902;28;20030;-64
2022/04/19 14:02:43;;;;;;;7.25;4.32;;;19.40;43.00;;;;;;4976182;28;20513;-66
2022/04/19 14:05:10;;;;;;;3.13;1.80;;;19.20;44.00;;;;;;4976208;28;20201;-64
2022/04/19 14:07:38;;;;;;;5.30;2.80;;;18.60;42.80;;;;;;4991020;28;20109;-64
2022/04/19 14:10:06;;;;;;;2.28;1.92;;;19.00;44.80;;;;;;4993449;28;20022;-64
2022/04/19 14:12:32;;;;;;;5.07;2.08;;;18.60;44.80;;;;;;4993769;28;20066;-65
2022/04/19 14:14:58;;;;;;;4.38;1.88;;;18.20;45.50;;;;;;4993584;28;20031;-65
2022/04/19 14:17:23;;;;;;;3.15;2.35;;;18.10;46.00;;;;;;4993526;28;20034;-65
2022/04/19 14:19:52;;;;;;;16.20;3.67;;;17.70;46.60;;;;;;4993442;28;20062;-65
2022/04/19 14:22:21;;;;;;;11.50;2.60;;;17.60;46.70;;;;;;4974740;28;20084;-65
2022/04/19 14:24:47;;;;;;;4.13;2.50;;;17.50;46.80;;;;;;4974633;28;20061;-65
2022/04/19 14:27:13;;;;;;;4.65;2.03;;;17.50;46.30;;;;;;4976094;28;20459;-65
2022/04/19 14:35:06;;;;;;;2.20;2.00;;;17.20;45.70;;;;;;4993487;28;20178;-65
2022/04/19 14:37:34;;;;;;;2.85;2.05;;;17.20;47.40;;;;;;4993665;28;20503;-65
2022/04/19 14:40:06;;;;;;;4.57;2.13;;;17.20;48.70;;;;;;4993651;28;20026;-65
2022/04/19 14:42:32;;;;;;;9.10;3.38;;;17.30;48.40;;;;;;4976138;28;20472;-65
2022/04/19 14:44:58;;;;;;;5.53;2.92;;;17.20;49.20;;;;;;4993850;28;20040;-65
2022/04/19 14:47:23;;;;;;;5.97;2.65;;;17.00;48.10;;;;;;4976133;28;20073;-64
2022/04/19 14:49:49;;;;;;;5.18;2.70;;;17.00;49.60;;;;;;4976025;28;20499;-65